My Meet Scores
Avery Allen, Gym Kinetics Gymnastics - MyMeetScores.com
Top100 | Top Teams | Upcoming Meets | Completed Meets | Latest | Add Scores | Help| Support | Bookmark and Share

Avery Allen, Gym Kinetics Gymnastics
Personal Bests
LevelVault BarsBeamFloorAA
39.6759.500 9.1509.37537.700
49.3009.500 9.7259.30037.800
59.5259.225 9.5509.47537.425
79.6009.350 9.6509.72537.900
Meet Scores
Date Meet Team Session Level Division Vault Bars Beam Floor AA
2021-04-09 Illinois Level 7 8 State Championships Gym Kinetics Gymnastics 1 7 Jr A 9.350 7T 9.175 22 9.450 13T 9.575 7 37.550 11
2021-03-05 NGC Flip'r S.O.U.L. Invitational Gym Kinetics Gymnastics 08 7 CHILD 9.250 6T 9.225 6 8.850 11 9.450 5T 36.775 8
2021-02-26 Kinetic Classic 2021 Gym Kinetics Gymnastics 13 7 Younger 9.375 7T 9.350 8T 9.150 12 9.550 3T 37.425 3
2021-02-12 Harley Meet Women - Midwest Twisters Gym Kinetics Gymnastics O10 7 Jr A 9.225 1 8.425 11 9.325 1T 9.175 3 36.150 4
2021-01-21 King Arthur Invitational Gym Kinetics Gymnastics 1 7 CH 9.225 3 9.250 4 9.500 3 9.725 1 37.700 2
2021-01-14 2021 Bravo Classic Gym Kinetics Gymnastics 16 7 Jr 9.050 10T 9.250 12 9.400 6T 9.700 1 37.400 6
2020-12-18 Aspire Classic Gym Kinetics Gymnastics 3 7 Younger 9.600 1 9.050 4T 9.650 1 9.600 2 37.900 1
2020-02-21 Kinetic Classic Gym Kinetics Gymnastics 03 5 Younger 8.850 43T 8.900 26 9.325 22T 9.250 18T 36.325 24
2020-01-17 2020 Bravo Classic Gym Kinetics Gymnastics 4A 5 Child 9.525 7 8.800 17 9.150 8 9.250 9T 36.725 10
2020-01-10 Leenda's Island Adventure Gym Kinetics Gymnastics PG1 5 9 & Under 9.050 3 8.450 8 8.650 7T 9.000 8 35.150 7
2019-12-20 Aspire Classic - 2019 Gym Kinetics Gymnastics 3A 5 Younger 9.500 2T 9.150 8T 8.825 17 8.700 19 36.175 10
2019-12-07 Home for the Holidays 2019 Gym Kinetics Gymnastics 5 5 Younger 9.175 3T 9.225 1T 9.550 1 9.475 3T 37.425 1
2019-03-22 Illinois Gymnastics State Championships Gym Kinetics Gymnastics 9 4 Ch D 9.275 2T 9.500 2 9.725 2 9.300 3T 37.800 2
2019-03-01 NGCD Academy's 2019 Flip'r Invitational Gym Kinetics Gymnastics 10 4 Child A 9.250 2 9.350 2T 9.275 4 9.125 8 37.000 3
2019-02-23 Kinetic Classic 2019 Gym Kinetics Gymnastics 1 4 Younger 8.475 29 9.350 13 9.050 13T 9.100 15T 35.975 13
2019-02-08 Midwest Twisters Harley Meet Womens Gym Kinetics Gymnastics T10 4 8 & under 8.600 1 9.125 1 9.275 1 8.850 1 35.850 1
2019-01-18 2019 Bravo Classic Gym Kinetics Gymnastics 3B 4 Child 8.925 18 8.650 18T 4.000 23 8.675 19 30.250 23
2019-01-11 St Jude Benefit Meet Gym Kinetics Gymnastics 6A 4 Jr A 9.300 2T 8.200 8 9.300 2T 9.000 6T 35.800 4
2018-12-14 2018 Aspire Classic Gym Kinetics Gymnastics 6A 4 Younger 8.850 14 9.050 11 9.050 16 9.100 14T 36.050 11
2018-05-03 Illinois USA Gymnastics Level 3 State Championships Gym Kinetics Gymnastics 7 3 Ch D 9.675 4T 9.500 3 9.150 12T 9.375 12 37.700 5T
2017-12-15 2017 Aspire Classic Gym Kinetics Gymnastics 9A 3 Younger 9.550 2 9.125 5 8.400 8T 9.250 7 36.325 3
Get your scores on
a t-shirt, pin, or hoodie